Portada
METAR-TAF:

METAR-TAF

Aeroports :

Besiers, França

latitud: 43-19N, longitud: 003-21E, altitud: 17 m

Observació

L'informe es va fer fa 10 minuts, a les 07:30 UTC
Vent 9 kt del Nord/Nord-Oest
Temperatura 5°C
Humitat 87%
Pressió 1030 hPa
Visibilitat 10 km o més
sense núvols per sota de 1500 mi sense presència de cumulonimbus.

METAR: LFMU 180730Z AUTO 34009KT CAVOK 05/03 Q1030 NOSIG

Hora: 08:40 (07:40 UTC)

Pronòstic

L'informe es va fer fa 5 hores i 40 minuts, a les 02:00 UTC
Pronòstic vàlid del 18 a les 03 UTC al 19 a les 03 UTC
Vent 10 kt del Oest/Nord-Oest
Visibilitat 10 km o més
Escasses núvols a una alçada de 4500 ft
Evolucionant progressivament
l' 18 a les 11 UTC al 18 a les 13 UTC
Vent 5 kt amb direcció variable

TAF: LFMU 180200Z 1803/1903 29010KT 9999 FEW045 BECMG 1811/1813 VRB05KT

Observacions i pronòstics meteorològics de més de 4000 aeroports (METAR i TAF).

Les estacions disponibles són els punts grocs i vermells al mapa.

Posi el ratolí al punt desitjat per veure el nom de l'estació.

Feu clic per veure les observacions i els pronòstics meteorològics.

Per canviar el mapa: feu clic els botons verds amb una creu de color negre per apropar; al botó verd amb un guió per allunyar la imatge; o en les fletxes verdes per a mapes adjacents.


METAR-TAF: